createdAt,value
2017-09-06T00:00:51.557Z,94.00
2017-09-06T00:03:19.044Z,94.00
2017-09-06T00:05:46.544Z,93.90
2017-09-06T00:08:14.037Z,94.00
2017-09-06T00:10:41.539Z,93.90
2017-09-06T00:13:09.125Z,93.90
2017-09-06T00:15:36.608Z,93.90
2017-09-06T00:18:04.213Z,93.90
2017-09-06T00:20:33.364Z,93.70
2017-09-06T00:23:00.869Z,93.70
2017-09-06T00:25:28.489Z,93.70
2017-09-06T00:27:55.993Z,93.70
2017-09-06T00:30:23.493Z,93.70
2017-09-06T00:32:51.014Z,93.70
2017-09-06T00:35:18.558Z,93.70
2017-09-06T00:37:46.066Z,93.60
2017-09-06T00:40:13.629Z,93.60
2017-09-06T00:42:41.140Z,93.50
2017-09-06T00:45:08.646Z,93.50
2017-09-06T00:47:36.272Z,93.50
2017-09-06T00:50:03.800Z,93.40
2017-09-06T00:52:31.298Z,93.50
2017-09-06T00:54:58.820Z,93.40
2017-09-06T00:57:26.322Z,93.40
2017-09-06T00:59:53.877Z,93.40
2017-09-06T01:02:21.428Z,93.50
2017-09-06T01:04:48.925Z,93.40
2017-09-06T01:07:16.422Z,93.40
2017-09-06T01:09:43.929Z,93.40
2017-09-06T01:12:11.516Z,93.50
2017-09-06T01:14:39.012Z,93.50
2017-09-06T01:17:06.496Z,93.50
2017-09-06T01:19:34.020Z,93.50
2017-09-06T01:22:01.511Z,93.50
2017-09-06T01:24:28.989Z,93.50
2017-09-06T01:26:56.556Z,93.50
2017-09-06T01:29:24.045Z,93.50
2017-09-06T01:31:51.638Z,93.60
2017-09-06T01:34:19.189Z,93.50
2017-09-06T01:36:46.700Z,93.60
2017-09-06T01:39:14.260Z,93.60
2017-09-06T01:41:41.789Z,93.60
2017-09-06T01:44:09.330Z,93.60
2017-09-06T01:46:36.828Z,93.70
2017-09-06T01:49:04.417Z,93.80
2017-09-06T01:51:31.955Z,93.80
2017-09-06T01:53:59.508Z,93.80
2017-09-06T01:56:27.002Z,93.80
2017-09-06T01:58:54.584Z,94.00
2017-09-06T02:01:22.072Z,93.90
2017-09-06T02:03:49.676Z,94.00
2017-09-06T02:06:17.169Z,94.10
2017-09-06T02:08:44.688Z,94.10
2017-09-06T02:11:12.238Z,94.30
2017-09-06T02:13:39.846Z,94.30
2017-09-06T02:16:07.417Z,94.30
2017-09-06T02:18:34.945Z,94.40
2017-09-06T02:21:02.488Z,94.40
2017-09-06T02:23:30.042Z,94.50
2017-09-06T02:25:57.530Z,94.50
2017-09-06T02:28:25.128Z,94.40
2017-09-06T02:30:52.628Z,94.50
2017-09-06T02:33:20.209Z,94.30
2017-09-06T02:35:47.712Z,94.30
2017-09-06T02:38:15.208Z,94.30
2017-09-06T02:40:42.726Z,94.30
2017-09-06T02:43:10.213Z,94.20
2017-09-06T02:45:37.764Z,94.20
2017-09-06T02:48:05.314Z,94.20
2017-09-06T02:50:32.853Z,94.20
2017-09-06T02:53:00.338Z,94.20
2017-09-06T02:55:27.836Z,94.30
2017-09-06T02:57:55.381Z,94.20
2017-09-06T03:00:22.881Z,94.20
2017-09-06T03:02:50.368Z,94.30
2017-09-06T03:05:17.918Z,94.40
2017-09-06T03:07:45.396Z,94.40
2017-09-06T03:10:12.909Z,94.40
2017-09-06T03:12:40.458Z,94.50
2017-09-06T03:15:07.988Z,94.40
2017-09-06T03:17:35.533Z,94.50
2017-09-06T03:20:03.021Z,94.50
2017-09-06T03:22:30.614Z,94.60
2017-09-06T03:24:58.100Z,94.70
2017-09-06T03:27:25.805Z,94.70
2017-09-06T03:29:53.357Z,94.60
2017-09-06T03:32:20.865Z,94.70
2017-09-06T03:34:48.437Z,94.60
2017-09-06T03:37:16.001Z,94.60
2017-09-06T03:39:43.491Z,94.60
2017-09-06T03:42:11.085Z,95.20
2017-09-06T03:44:38.628Z,96.00
2017-09-06T03:47:06.181Z,96.60
2017-09-06T03:49:33.673Z,96.90
2017-09-06T03:52:01.205Z,97.50
2017-09-06T03:54:28.694Z,97.50
2017-09-06T03:56:56.176Z,97.60
2017-09-06T03:59:23.782Z,97.80
2017-09-06T04:01:51.317Z,97.80
2017-09-06T04:04:18.872Z,98.10
2017-09-06T04:06:46.361Z,98.00
2017-09-06T04:09:13.975Z,97.90
2017-09-06T04:11:41.508Z,97.80
2017-09-06T04:14:09.010Z,98.10
2017-09-06T04:16:36.505Z,98.00
2017-09-06T04:19:04.039Z,98.20
2017-09-06T04:21:31.583Z,98.30
2017-09-06T04:23:59.125Z,98.00
2017-09-06T04:26:26.670Z,98.10
2017-09-06T04:28:54.220Z,98.20
2017-09-06T04:31:21.753Z,98.10
2017-09-06T04:33:49.300Z,98.20
2017-09-06T04:36:16.875Z,98.40
2017-09-06T04:38:44.425Z,98.10
2017-09-06T04:41:11.953Z,98.00
2017-09-06T04:43:39.489Z,98.20
2017-09-06T04:46:07.004Z,98.70
2017-09-06T04:48:34.484Z,99.00
2017-09-06T04:51:01.962Z,99.90
2017-09-06T04:53:29.563Z,99.60
2017-09-06T04:55:57.040Z,99.80
2017-09-06T04:58:24.553Z,99.90
2017-09-06T05:00:52.045Z,99.90
2017-09-06T05:03:19.641Z,99.90
2017-09-06T05:05:47.152Z,99.90
2017-09-06T05:08:14.725Z,99.90
2017-09-06T05:10:42.282Z,99.90
2017-09-06T05:13:09.822Z,99.90
2017-09-06T05:15:37.365Z,99.90
2017-09-06T05:18:04.877Z,99.90
2017-09-06T05:20:32.357Z,99.90
2017-09-06T05:22:59.893Z,99.90
2017-09-06T05:25:27.452Z,99.90
2017-09-06T05:27:54.989Z,99.90
2017-09-06T05:30:22.520Z,99.90
2017-09-06T05:32:50.064Z,99.90
2017-09-06T05:35:17.621Z,99.80
2017-09-06T05:37:45.158Z,99.70
2017-09-06T05:40:12.700Z,99.50
2017-09-06T05:42:40.249Z,99.40
2017-09-06T05:45:07.785Z,99.30
2017-09-06T05:47:35.332Z,99.20
2017-09-06T05:50:02.845Z,99.00
2017-09-06T05:52:30.421Z,98.70
2017-09-06T05:54:57.945Z,98.60
2017-09-06T05:57:25.429Z,98.60
2017-09-06T05:59:52.948Z,98.30
2017-09-06T06:02:20.462Z,98.50
2017-09-06T06:04:48.300Z,98.70
2017-09-06T06:07:15.952Z,99.20
2017-09-06T06:09:43.477Z,99.10
2017-09-06T06:12:11.001Z,99.60
2017-09-06T06:14:38.480Z,99.90
2017-09-06T06:17:06.040Z,99.90
2017-09-06T06:19:33.588Z,99.90
2017-09-06T06:22:01.149Z,99.90
2017-09-06T06:24:28.695Z,99.90
2017-09-06T06:26:56.437Z,99.90
2017-09-06T06:29:23.924Z,99.90
2017-09-06T06:31:51.664Z,99.90
2017-09-06T06:34:19.794Z,99.90
2017-09-06T06:36:49.640Z,99.90
2017-09-06T06:39:17.619Z,99.90
2017-09-06T06:41:46.649Z,99.90
2017-09-06T06:44:15.925Z,99.90
2017-09-06T06:46:44.023Z,99.90
2017-09-06T06:49:17.819Z,99.80
2017-09-06T06:51:47.013Z,99.90
2017-09-06T06:54:15.333Z,99.70
2017-09-06T06:56:43.324Z,99.90
2017-09-06T06:59:10.932Z,99.90
2017-09-06T07:01:38.650Z,99.80
2017-09-06T07:04:06.153Z,99.90
2017-09-06T07:06:33.632Z,99.90
2017-09-06T07:09:01.124Z,99.90
2017-09-06T07:11:28.645Z,99.90
2017-09-06T07:13:56.134Z,99.80
2017-09-06T07:16:23.642Z,99.90
2017-09-06T07:19:01.220Z,99.60
2017-09-06T07:21:28.855Z,99.60
2017-09-06T07:23:56.468Z,99.70
2017-09-06T07:26:23.974Z,99.10
2017-09-06T07:28:51.959Z,98.80
2017-09-06T07:31:19.469Z,98.90
2017-09-06T07:33:47.006Z,98.80
2017-09-06T07:36:14.565Z,98.10
2017-09-06T07:38:42.108Z,97.70
2017-09-06T07:41:09.613Z,96.90
2017-09-06T07:43:37.153Z,96.80
2017-09-06T07:46:04.665Z,96.50
2017-09-06T07:48:32.270Z,96.60
2017-09-06T07:50:59.764Z,96.20
2017-09-06T07:53:27.338Z,96.60
2017-09-06T07:55:54.865Z,96.10
2017-09-06T07:58:22.422Z,95.30
2017-09-06T08:00:49.953Z,95.50
2017-09-06T08:03:17.464Z,95.10
2017-09-06T08:05:44.960Z,94.20
2017-09-06T08:08:12.474Z,94.10
2017-09-06T08:10:40.025Z,94.20
2017-09-06T08:13:07.575Z,93.70
2017-09-06T08:15:35.125Z,93.50
2017-09-06T08:18:02.668Z,93.30
2017-09-06T08:20:30.220Z,92.70
2017-09-06T08:22:57.714Z,92.10
2017-09-06T08:25:25.305Z,91.90
2017-09-06T08:27:52.840Z,91.10
2017-09-06T08:30:20.337Z,90.80
2017-09-06T08:32:47.812Z,90.20
2017-09-06T08:35:15.381Z,87.90
2017-09-06T08:37:42.919Z,88.60
2017-09-06T08:40:10.417Z,88.60
2017-09-06T08:42:37.932Z,87.60
2017-09-06T08:45:05.437Z,87.10
2017-09-06T08:47:33.020Z,87.20
2017-09-06T08:50:00.549Z,86.00
2017-09-06T08:52:28.543Z,85.30
2017-09-06T08:54:56.065Z,86.10
2017-09-06T08:57:23.569Z,85.30
2017-09-06T08:59:51.151Z,84.60
2017-09-06T09:02:18.698Z,83.30
2017-09-06T09:04:46.241Z,82.60
2017-09-06T09:07:13.797Z,81.90
2017-09-06T09:09:41.282Z,79.10
2017-09-06T09:12:08.793Z,79.30
2017-09-06T09:14:36.272Z,77.10
2017-09-06T09:17:03.864Z,77.10
2017-09-06T09:19:31.364Z,75.80
2017-09-06T09:21:58.947Z,75.90
2017-09-06T09:24:26.485Z,74.40
2017-09-06T09:26:53.996Z,74.40
2017-09-06T09:29:21.568Z,71.80
2017-09-06T09:31:49.116Z,69.30
2017-09-06T09:34:16.678Z,71.10
2017-09-06T09:36:44.161Z,71.80
2017-09-06T09:39:11.749Z,72.10
2017-09-06T09:41:39.301Z,70.40
2017-09-06T09:44:06.868Z,70.10
2017-09-06T09:46:34.345Z,69.60
2017-09-06T09:49:01.871Z,66.70
2017-09-06T09:51:29.372Z,64.10
2017-09-06T09:53:56.886Z,62.80
2017-09-06T09:56:24.388Z,62.80
2017-09-06T09:58:51.888Z,62.30
2017-09-06T10:01:19.399Z,62.60
2017-09-06T10:03:47.033Z,63.00
2017-09-06T10:06:14.517Z,63.10
2017-09-06T10:08:41.996Z,63.30
2017-09-06T10:11:09.497Z,63.10
2017-09-06T10:13:37.036Z,62.70
2017-09-06T10:16:04.533Z,61.60
2017-09-06T10:18:32.069Z,61.90
2017-09-06T10:20:59.604Z,62.70
2017-09-06T10:23:27.109Z,61.70
2017-09-06T10:25:54.729Z,61.80
2017-09-06T10:28:22.272Z,63.00
2017-09-06T10:30:49.816Z,64.60
2017-09-06T10:33:17.326Z,64.70
2017-09-06T10:35:44.892Z,65.20
2017-09-06T10:38:12.397Z,66.60
2017-09-06T10:40:39.977Z,67.60
2017-09-06T10:43:07.481Z,67.70
2017-09-06T10:45:35.054Z,69.00
2017-09-06T10:48:02.573Z,70.20
2017-09-06T10:50:30.094Z,70.80
2017-09-06T10:52:57.664Z,71.70
2017-09-06T10:55:25.153Z,71.70
2017-09-06T10:57:52.657Z,71.40
2017-09-06T11:00:20.145Z,71.60
2017-09-06T11:02:47.733Z,67.80
2017-09-06T11:05:15.282Z,66.60
2017-09-06T11:07:42.949Z,66.90
2017-09-06T11:10:10.567Z,67.50
2017-09-06T11:12:38.113Z,67.40
2017-09-06T11:15:05.616Z,66.90
2017-09-06T11:17:33.121Z,67.40
2017-09-06T11:20:00.637Z,64.70
2017-09-06T11:22:28.186Z,63.10
2017-09-06T11:24:55.686Z,62.60
2017-09-06T11:27:23.282Z,62.60
2017-09-06T11:29:50.817Z,62.30
2017-09-06T11:32:18.369Z,62.10
2017-09-06T11:34:45.916Z,61.50
2017-09-06T11:37:13.413Z,59.10
2017-09-06T11:39:40.922Z,59.90
2017-09-06T11:42:08.413Z,59.50
2017-09-06T11:44:35.944Z,60.40
2017-09-06T11:47:03.454Z,61.10
2017-09-06T11:49:31.076Z,61.70
2017-09-06T11:51:58.692Z,62.10
2017-09-06T11:54:26.186Z,61.40
2017-09-06T11:56:53.774Z,61.10
2017-09-06T11:59:21.313Z,61.30
2017-09-06T12:01:48.888Z,59.60
2017-09-06T12:04:16.399Z,58.10
2017-09-06T12:06:44.049Z,57.70
2017-09-06T12:09:11.528Z,57.20
2017-09-06T12:11:39.033Z,56.70
2017-09-06T12:14:06.528Z,56.30
2017-09-06T12:16:34.121Z,56.20
2017-09-06T12:19:01.651Z,56.80
2017-09-06T12:21:29.192Z,57.80
2017-09-06T12:23:56.756Z,58.40
2017-09-06T12:26:24.272Z,59.20
2017-09-06T12:28:51.837Z,59.10
2017-09-06T12:31:19.333Z,59.30
2017-09-06T12:33:46.844Z,59.70
2017-09-06T12:36:14.378Z,59.70
2017-09-06T12:38:41.917Z,60.30
2017-09-06T12:41:09.397Z,60.30
2017-09-06T12:43:36.914Z,60.70
2017-09-06T12:46:04.410Z,60.60
2017-09-06T12:48:31.960Z,61.70
2017-09-06T12:50:59.465Z,62.30
2017-09-06T12:53:27.029Z,63.40
2017-09-06T12:55:54.565Z,63.50
2017-09-06T12:58:22.064Z,63.80
2017-09-06T13:00:49.575Z,62.70
2017-09-06T13:03:17.200Z,62.90
2017-09-06T13:05:44.690Z,63.50
2017-09-06T13:08:12.182Z,65.50
2017-09-06T13:10:39.731Z,63.50
2017-09-06T13:13:07.269Z,59.50
2017-09-06T13:15:34.772Z,60.00
2017-09-06T13:18:02.269Z,61.10
2017-09-06T13:20:29.807Z,62.70
2017-09-06T13:22:57.343Z,62.70
2017-09-06T13:25:24.893Z,63.00
2017-09-06T13:27:52.433Z,63.50
2017-09-06T13:30:19.941Z,63.60
2017-09-06T13:32:47.520Z,63.20
2017-09-06T13:35:15.046Z,63.30
2017-09-06T13:37:42.602Z,62.50
2017-09-06T13:40:10.084Z,62.10
2017-09-06T13:42:37.617Z,60.70
2017-09-06T13:45:05.097Z,59.40
2017-09-06T13:47:32.617Z,60.00
2017-09-06T13:50:00.140Z,60.40
2017-09-06T13:52:27.657Z,61.40
2017-09-06T13:54:55.316Z,60.80
2017-09-06T13:57:22.821Z,61.20
2017-09-06T13:59:50.396Z,61.50
2017-09-06T14:02:17.956Z,61.80
2017-09-06T14:04:45.486Z,62.80
2017-09-06T14:07:13.001Z,63.70
2017-09-06T14:09:40.499Z,64.20
2017-09-06T14:12:08.018Z,64.40
2017-09-06T14:14:35.510Z,64.60
2017-09-06T14:17:03.006Z,65.80
2017-09-06T14:19:30.566Z,66.60
2017-09-06T14:21:58.101Z,66.20
2017-09-06T14:24:25.641Z,66.60
2017-09-06T14:26:53.125Z,66.50
2017-09-06T14:29:20.641Z,66.50
2017-09-06T14:31:48.129Z,67.00
2017-09-06T14:34:15.720Z,67.10
2017-09-06T14:36:43.257Z,66.00
2017-09-06T14:39:10.773Z,66.00
2017-09-06T14:41:38.293Z,66.70
2017-09-06T14:44:05.886Z,67.00
2017-09-06T14:46:33.388Z,66.10
2017-09-06T14:49:00.883Z,65.80
2017-09-06T14:51:28.410Z,65.90
2017-09-06T14:53:55.903Z,66.10
2017-09-06T14:56:23.497Z,66.30
2017-09-06T14:58:51.092Z,66.70
2017-09-06T15:01:18.574Z,66.20
2017-09-06T15:03:46.133Z,67.10
2017-09-06T15:06:13.647Z,66.90
2017-09-06T15:08:41.217Z,66.70
2017-09-06T15:11:08.744Z,66.70
2017-09-06T15:13:36.238Z,65.80
2017-09-06T15:16:03.753Z,65.40
2017-09-06T15:18:31.263Z,65.40
2017-09-06T15:20:58.833Z,65.80
2017-09-06T15:23:26.385Z,66.00
2017-09-06T15:25:54.040Z,66.40
2017-09-06T15:28:21.577Z,66.20
2017-09-06T15:30:49.122Z,67.00
2017-09-06T15:33:16.664Z,66.90
2017-09-06T15:35:44.154Z,66.80
2017-09-06T15:38:11.748Z,67.50
2017-09-06T15:40:39.232Z,67.10
2017-09-06T15:43:06.737Z,67.40
2017-09-06T15:45:34.238Z,67.20
2017-09-06T15:48:01.764Z,67.30
2017-09-06T15:50:29.249Z,66.90
2017-09-06T15:52:56.897Z,64.80
2017-09-06T15:55:24.416Z,64.70
2017-09-06T15:57:52.103Z,65.40
2017-09-06T16:00:19.593Z,66.00
2017-09-06T16:02:47.188Z,65.30
2017-09-06T16:05:14.694Z,65.40
2017-09-06T16:07:42.189Z,65.70
2017-09-06T16:10:09.697Z,66.30
2017-09-06T16:12:37.182Z,67.10
2017-09-06T16:15:04.692Z,68.10
2017-09-06T16:17:32.189Z,69.00
2017-09-06T16:19:59.694Z,69.10
2017-09-06T16:22:27.181Z,68.70
2017-09-06T16:24:54.802Z,69.10
2017-09-06T16:27:22.331Z,69.70
2017-09-06T16:29:49.869Z,69.80
2017-09-06T16:32:17.409Z,69.80
2017-09-06T16:34:44.981Z,69.50
2017-09-06T16:37:12.489Z,70.10
2017-09-06T16:39:40.046Z,69.40
2017-09-06T16:42:07.566Z,69.50
2017-09-06T16:44:35.154Z,69.60
2017-09-06T16:47:02.772Z,69.70
2017-09-06T16:49:30.425Z,69.80
2017-09-06T16:51:57.933Z,70.00
2017-09-06T16:54:25.430Z,70.30
2017-09-06T16:56:52.937Z,70.70
2017-09-06T16:59:20.454Z,71.20
2017-09-06T17:01:47.994Z,71.50
2017-09-06T17:04:15.532Z,72.20
2017-09-06T17:06:43.024Z,72.20
2017-09-06T17:09:10.541Z,72.30
2017-09-06T17:11:38.029Z,72.40
2017-09-06T17:14:05.601Z,72.90
2017-09-06T17:16:33.151Z,73.00
2017-09-06T17:19:00.657Z,73.30
2017-09-06T17:21:28.232Z,73.40
2017-09-06T17:23:55.738Z,73.70
2017-09-06T17:26:23.233Z,73.90
2017-09-06T17:28:50.802Z,74.20
2017-09-06T17:31:18.349Z,74.50
2017-09-06T17:33:46.773Z,74.40
2017-09-06T17:36:14.353Z,74.30
2017-09-06T17:38:41.860Z,74.30
2017-09-06T17:41:09.445Z,74.50
2017-09-06T17:43:36.943Z,74.80
2017-09-06T17:46:04.476Z,74.00
2017-09-06T17:48:31.964Z,73.80
2017-09-06T17:50:59.469Z,72.80
2017-09-06T17:53:26.957Z,72.80
2017-09-06T17:55:54.581Z,72.50
2017-09-06T17:58:22.077Z,72.30
2017-09-06T18:00:49.628Z,72.40
2017-09-06T18:03:17.126Z,72.00
2017-09-06T18:05:44.614Z,72.00
2017-09-06T18:08:12.130Z,72.00
2017-09-06T18:10:39.620Z,71.80
2017-09-06T18:13:07.136Z,71.90
2017-09-06T18:15:34.639Z,72.00
2017-09-06T18:18:02.165Z,71.60
2017-09-06T18:20:29.653Z,71.30
2017-09-06T18:22:57.167Z,71.40
2017-09-06T18:25:24.657Z,71.50
2017-09-06T18:27:52.179Z,70.90
2017-09-06T18:30:19.695Z,71.50
2017-09-06T18:32:48.233Z,71.30
2017-09-06T18:35:15.736Z,71.50
2017-09-06T18:37:43.237Z,71.70
2017-09-06T18:40:10.900Z,72.00
2017-09-06T18:42:38.400Z,72.10
2017-09-06T18:45:05.888Z,72.50
2017-09-06T18:47:33.403Z,73.10
2017-09-06T18:50:00.890Z,73.30
2017-09-06T18:52:28.489Z,73.60
2017-09-06T18:54:56.053Z,73.80
2017-09-06T18:57:23.586Z,74.00
2017-09-06T18:59:51.094Z,74.30
2017-09-06T19:02:18.585Z,74.70
2017-09-06T19:04:46.092Z,75.00
2017-09-06T19:07:13.598Z,75.00
2017-09-06T19:09:41.120Z,75.60
2017-09-06T19:12:08.605Z,75.50
2017-09-06T19:14:36.312Z,75.40
2017-09-06T19:17:03.801Z,75.50
2017-09-06T19:19:31.375Z,75.50
2017-09-06T19:21:58.870Z,76.40
2017-09-06T19:24:26.449Z,75.70
2017-09-06T19:26:54.008Z,75.80
2017-09-06T19:29:21.500Z,75.80
2017-09-06T19:31:49.109Z,76.10
2017-09-06T19:34:16.639Z,76.10
2017-09-06T19:36:44.161Z,76.10
2017-09-06T19:39:11.750Z,76.30
2017-09-06T19:41:39.268Z,76.30
2017-09-06T19:44:06.773Z,76.40
2017-09-06T19:46:34.284Z,76.40
2017-09-06T19:49:01.770Z,76.70
2017-09-06T19:51:29.295Z,76.80
2017-09-06T19:53:56.782Z,76.90
2017-09-06T19:56:24.277Z,77.00
2017-09-06T19:58:51.780Z,76.90
2017-09-06T20:01:19.341Z,76.90
2017-09-06T20:03:46.866Z,77.10
2017-09-06T20:06:14.372Z,77.50
2017-09-06T20:08:41.951Z,77.70
2017-09-06T20:11:09.478Z,77.90
2017-09-06T20:13:37.367Z,78.30
2017-09-06T20:16:04.889Z,78.30
2017-09-06T20:18:32.415Z,79.10
2017-09-06T20:20:59.909Z,81.10
2017-09-06T20:23:27.409Z,82.00
2017-09-06T20:25:54.934Z,82.90
2017-09-06T20:28:22.658Z,83.10
2017-09-06T20:30:50.197Z,83.70
2017-09-06T20:33:17.842Z,85.00
2017-09-06T20:35:45.333Z,84.80
2017-09-06T20:38:12.908Z,85.60
2017-09-06T20:40:40.418Z,86.00
2017-09-06T20:43:07.900Z,86.10
2017-09-06T20:45:35.418Z,86.30
2017-09-06T20:48:02.965Z,86.60
2017-09-06T20:50:30.514Z,86.90
2017-09-06T20:52:58.020Z,86.80
2017-09-06T20:55:25.537Z,87.00
2017-09-06T20:57:58.965Z,87.30
2017-09-06T21:00:26.492Z,87.40
2017-09-06T21:02:54.022Z,87.40
2017-09-06T21:05:21.530Z,87.90
2017-09-06T21:07:49.013Z,88.20
2017-09-06T21:10:16.601Z,88.30
2017-09-06T21:12:44.100Z,88.30
2017-09-06T21:15:11.605Z,88.40
2017-09-06T21:17:39.098Z,88.50
2017-09-06T21:20:06.664Z,88.60
2017-09-06T21:22:34.144Z,88.40
2017-09-06T21:25:01.681Z,88.30
2017-09-06T21:27:29.234Z,88.30
2017-09-06T21:29:56.748Z,88.80
2017-09-06T21:32:25.454Z,87.90
2017-09-06T21:34:53.023Z,87.90
2017-09-06T21:37:20.608Z,88.00
2017-09-06T21:39:48.101Z,88.10
2017-09-06T21:42:15.597Z,88.30
2017-09-06T21:44:43.097Z,88.10
2017-09-06T21:47:10.628Z,88.10
2017-09-06T21:49:38.121Z,88.00
2017-09-06T21:52:05.628Z,88.20
2017-09-06T21:54:33.121Z,88.30
2017-09-06T21:57:00.637Z,88.40
2017-09-06T21:59:28.208Z,88.00
2017-09-06T22:01:55.741Z,88.20
2017-09-06T22:04:23.258Z,88.20
2017-09-06T22:06:50.758Z,88.20
2017-09-06T22:09:18.278Z,88.10
2017-09-06T22:11:45.771Z,88.30
2017-09-06T22:14:13.313Z,88.40
2017-09-06T22:16:40.801Z,88.60
2017-09-06T22:19:08.386Z,88.80
2017-09-06T22:21:35.886Z,88.70
2017-09-06T22:24:03.412Z,89.60
2017-09-06T22:26:30.896Z,89.00
2017-09-06T22:28:58.390Z,88.90
2017-09-06T22:31:25.896Z,88.80
2017-09-06T22:33:53.404Z,89.00
2017-09-06T22:36:20.913Z,89.00
2017-09-06T22:38:48.409Z,88.80
2017-09-06T22:41:15.912Z,89.00
2017-09-06T22:43:43.405Z,89.00
2017-09-06T22:46:10.914Z,88.70
2017-09-06T22:48:38.401Z,88.70
2017-09-06T22:51:05.905Z,88.80
2017-09-06T22:53:33.410Z,88.90
2017-09-06T22:56:00.917Z,88.80
2017-09-06T22:58:28.409Z,88.90
2017-09-06T23:00:55.921Z,88.70
2017-09-06T23:03:23.408Z,88.60
2017-09-06T23:05:50.924Z,88.80
2017-09-06T23:08:18.416Z,88.80
2017-09-06T23:10:45.902Z,88.70
2017-09-06T23:13:13.405Z,88.80
2017-09-06T23:15:40.897Z,88.80
2017-09-06T23:18:08.481Z,88.60
2017-09-06T23:20:36.130Z,88.70
2017-09-06T23:23:03.642Z,88.80
2017-09-06T23:25:31.124Z,88.70
2017-09-06T23:27:58.624Z,88.90
2017-09-06T23:30:26.226Z,88.50
2017-09-06T23:32:53.730Z,88.50
2017-09-06T23:35:21.220Z,88.40
2017-09-06T23:37:48.734Z,88.40
2017-09-06T23:40:16.233Z,88.30
2017-09-06T23:42:43.716Z,88.20
2017-09-06T23:45:11.220Z,88.30
2017-09-06T23:47:38.706Z,88.50
2017-09-06T23:50:06.208Z,88.30
2017-09-06T23:52:33.688Z,88.30
2017-09-06T23:55:01.189Z,88.40
2017-09-06T23:57:28.679Z,88.40
2017-09-06T23:59:56.177Z,88.40
